sensor_id;sensor_type;location;lat;lon;timestamp;temperature;humidity
39345;DHT22;25061;51.954;6.996;2022-12-20T00:00:46;10.20;99.90
39345;DHT22;25061;51.954;6.996;2022-12-20T00:03:12;10.20;99.90
39345;DHT22;25061;51.954;6.996;2022-12-20T00:05:39;10.20;99.90
39345;DHT22;25061;51.954;6.996;2022-12-20T00:08:05;10.30;99.90
39345;DHT22;25061;51.954;6.996;2022-12-20T00:10:39;10.30;99.90
39345;DHT22;25061;51.954;6.996;2022-12-20T00:13:05;10.20;99.90
39345;DHT22;25061;51.954;6.996;2022-12-20T00:15:31;10.30;99.90
39345;DHT22;25061;51.954;6.996;2022-12-20T00:17:57;10.30;99.90
39345;DHT22;25061;51.954;6.996;2022-12-20T00:20:24;10.30;99.90
39345;DHT22;25061;51.954;6.996;2022-12-20T00:22:50;10.30;99.90
39345;DHT22;25061;51.954;6.996;2022-12-20T00:25:15;10.20;99.90
39345;DHT22;25061;51.954;6.996;2022-12-20T00:27:41;10.30;99.90
39345;DHT22;25061;51.954;6.996;2022-12-20T00:30:07;10.20;99.90
39345;DHT22;25061;51.954;6.996;2022-12-20T00:32:33;10.10;99.90
39345;DHT22;25061;51.954;6.996;2022-12-20T00:34:58;10.10;99.90
39345;DHT22;25061;51.954;6.996;2022-12-20T00:37:24;10.00;99.90
39345;DHT22;25061;51.954;6.996;2022-12-20T00:39:49;10.10;99.90
39345;DHT22;25061;51.954;6.996;2022-12-20T00:42:15;10.10;99.90
39345;DHT22;25061;51.954;6.996;2022-12-20T00:44:40;10.00;99.90
39345;DHT22;25061;51.954;6.996;2022-12-20T00:47:06;10.10;99.90
39345;DHT22;25061;51.954;6.996;2022-12-20T00:49:32;10.00;99.90
39345;DHT22;25061;51.954;6.996;2022-12-20T00:51:58;9.90;99.90
39345;DHT22;25061;51.954;6.996;2022-12-20T00:54:23;10.00;99.90
39345;DHT22;25061;51.954;6.996;2022-12-20T00:56:49;10.00;99.90
39345;DHT22;25061;51.954;6.996;2022-12-20T00:59:14;10.00;99.90
39345;DHT22;25061;51.954;6.996;2022-12-20T01:01:40;10.10;99.90
39345;DHT22;25061;51.954;6.996;2022-12-20T01:04:06;10.20;99.90
39345;DHT22;25061;51.954;6.996;2022-12-20T01:06:32;10.20;99.90
39345;DHT22;25061;51.954;6.996;2022-12-20T01:08:58;10.20;99.90
39345;DHT22;25061;51.954;6.996;2022-12-20T01:11:29;10.20;99.90
39345;DHT22;25061;51.954;6.996;2022-12-20T01:13:57;10.30;99.90
39345;DHT22;25061;51.954;6.996;2022-12-20T01:16:31;10.30;99.90
39345;DHT22;25061;51.954;6.996;2022-12-20T01:18:57;10.30;99.90
39345;DHT22;25061;51.954;6.996;2022-12-20T01:21:24;10.40;99.90
39345;DHT22;25061;51.954;6.996;2022-12-20T01:23:51;10.50;99.90
39345;DHT22;25061;51.954;6.996;2022-12-20T01:26:19;10.40;99.90
39345;DHT22;25061;51.954;6.996;2022-12-20T01:28:47;10.50;99.90
39345;DHT22;25061;51.954;6.996;2022-12-20T01:31:15;10.40;99.90
39345;DHT22;25061;51.954;6.996;2022-12-20T01:33:42;10.40;99.90
39345;DHT22;25061;51.954;6.996;2022-12-20T01:36:12;10.50;99.90
39345;DHT22;25061;51.954;6.996;2022-12-20T01:38:38;10.50;99.90
39345;DHT22;25061;51.954;6.996;2022-12-20T01:41:03;10.60;99.90
39345;DHT22;25061;51.954;6.996;2022-12-20T01:43:54;10.60;99.90
39345;DHT22;25061;51.954;6.996;2022-12-20T01:46:25;10.50;99.90
39345;DHT22;25061;51.954;6.996;2022-12-20T01:49:11;10.60;99.90
39345;DHT22;25061;51.954;6.996;2022-12-20T01:51:44;10.70;99.90
39345;DHT22;25061;51.954;6.996;2022-12-20T01:54:16;10.60;99.90
39345;DHT22;25061;51.954;6.996;2022-12-20T01:56:48;10.70;99.90
39345;DHT22;25061;51.954;6.996;2022-12-20T01:59:14;10.60;99.90
39345;DHT22;25061;51.954;6.996;2022-12-20T02:01:41;10.70;99.90
39345;DHT22;25061;51.954;6.996;2022-12-20T02:04:07;10.80;99.90
39345;DHT22;25061;51.954;6.996;2022-12-20T02:06:34;10.80;99.90
39345;DHT22;25061;51.954;6.996;2022-12-20T02:09:02;10.70;99.90
39345;DHT22;25061;51.954;6.996;2022-12-20T02:11:44;10.60;99.90
39345;DHT22;25061;51.954;6.996;2022-12-20T02:16:49;10.50;99.90
39345;DHT22;25061;51.954;6.996;2022-12-20T02:26:02;10.40;99.90
39345;DHT22;25061;51.954;6.996;2022-12-20T02:28:55;10.40;99.90
39345;DHT22;25061;51.954;6.996;2022-12-20T02:31:34;10.30;99.90
39345;DHT22;25061;51.954;6.996;2022-12-20T02:34:05;10.30;99.90
39345;DHT22;25061;51.954;6.996;2022-12-20T02:36:31;10.30;99.90
39345;DHT22;25061;51.954;6.996;2022-12-20T02:38:56;10.20;99.90
39345;DHT22;25061;51.954;6.996;2022-12-20T02:41:23;10.10;99.90
39345;DHT22;25061;51.954;6.996;2022-12-20T02:43:55;10.10;99.90
39345;DHT22;25061;51.954;6.996;2022-12-20T02:46:41;10.10;99.90
39345;DHT22;25061;51.954;6.996;2022-12-20T02:49:13;10.10;99.90
39345;DHT22;25061;51.954;6.996;2022-12-20T02:51:42;10.00;99.90
39345;DHT22;25061;51.954;6.996;2022-12-20T02:54:09;9.90;99.90
39345;DHT22;25061;51.954;6.996;2022-12-20T02:56:41;9.90;99.90
39345;DHT22;25061;51.954;6.996;2022-12-20T02:59:26;9.90;99.90
39345;DHT22;25061;51.954;6.996;2022-12-20T03:01:55;9.80;99.90
39345;DHT22;25061;51.954;6.996;2022-12-20T03:04:24;9.80;99.90
39345;DHT22;25061;51.954;6.996;2022-12-20T03:07:03;9.70;99.90
39345;DHT22;25061;51.954;6.996;2022-12-20T03:09:30;9.60;99.90
39345;DHT22;25061;51.954;6.996;2022-12-20T03:11:57;9.60;99.90
39345;DHT22;25061;51.954;6.996;2022-12-20T03:14:22;9.60;99.90
39345;DHT22;25061;51.954;6.996;2022-12-20T03:16:49;9.60;99.90
39345;DHT22;25061;51.954;6.996;2022-12-20T03:19:15;9.50;99.90
39345;DHT22;25061;51.954;6.996;2022-12-20T03:21:41;9.50;99.90
39345;DHT22;25061;51.954;6.996;2022-12-20T03:24:07;9.50;99.90
39345;DHT22;25061;51.954;6.996;2022-12-20T03:26:32;9.50;99.90
39345;DHT22;25061;51.954;6.996;2022-12-20T03:28:58;9.40;99.90
39345;DHT22;25061;51.954;6.996;2022-12-20T03:31:23;9.40;99.90
39345;DHT22;25061;51.954;6.996;2022-12-20T03:33:49;9.40;99.90
39345;DHT22;25061;51.954;6.996;2022-12-20T03:36:14;9.40;99.90
39345;DHT22;25061;51.954;6.996;2022-12-20T03:38:40;9.40;99.90
39345;DHT22;25061;51.954;6.996;2022-12-20T03:41:05;9.30;99.90
39345;DHT22;25061;51.954;6.996;2022-12-20T03:43:31;9.30;99.90
39345;DHT22;25061;51.954;6.996;2022-12-20T03:45:57;9.30;99.90
39345;DHT22;25061;51.954;6.996;2022-12-20T03:48:22;9.30;99.90
39345;DHT22;25061;51.954;6.996;2022-12-20T03:50:48;9.30;99.90
39345;DHT22;25061;51.954;6.996;2022-12-20T03:53:13;9.30;99.90
39345;DHT22;25061;51.954;6.996;2022-12-20T03:55:39;9.30;99.90
39345;DHT22;25061;51.954;6.996;2022-12-20T03:58:05;9.20;99.90
39345;DHT22;25061;51.954;6.996;2022-12-20T04:00:30;9.30;99.90
39345;DHT22;25061;51.954;6.996;2022-12-20T04:02:56;9.40;99.90
39345;DHT22;25061;51.954;6.996;2022-12-20T04:05:22;9.40;99.90
39345;DHT22;25061;51.954;6.996;2022-12-20T04:07:47;9.40;99.90
39345;DHT22;25061;51.954;6.996;2022-12-20T04:10:13;9.30;99.90
39345;DHT22;25061;51.954;6.996;2022-12-20T04:12:38;9.50;99.90
39345;DHT22;25061;51.954;6.996;2022-12-20T04:15:04;9.40;99.90
39345;DHT22;25061;51.954;6.996;2022-12-20T04:17:30;9.60;99.90
39345;DHT22;25061;51.954;6.996;2022-12-20T04:19:55;9.50;99.90
39345;DHT22;25061;51.954;6.996;2022-12-20T04:22:20;9.70;99.90
39345;DHT22;25061;51.954;6.996;2022-12-20T04:24:46;9.60;99.90
39345;DHT22;25061;51.954;6.996;2022-12-20T04:27:12;9.70;99.90
39345;DHT22;25061;51.954;6.996;2022-12-20T04:29:37;9.70;99.90
39345;DHT22;25061;51.954;6.996;2022-12-20T04:32:03;9.70;99.90
39345;DHT22;25061;51.954;6.996;2022-12-20T04:34:28;9.70;99.90
39345;DHT22;25061;51.954;6.996;2022-12-20T04:36:54;9.60;99.90
39345;DHT22;25061;51.954;6.996;2022-12-20T04:39:19;9.60;99.90
39345;DHT22;25061;51.954;6.996;2022-12-20T04:41:45;9.60;99.90
39345;DHT22;25061;51.954;6.996;2022-12-20T04:44:10;9.70;99.90
39345;DHT22;25061;51.954;6.996;2022-12-20T04:46:36;9.70;99.90
39345;DHT22;25061;51.954;6.996;2022-12-20T04:49:02;9.80;99.90
39345;DHT22;25061;51.954;6.996;2022-12-20T04:51:28;9.90;99.90
39345;DHT22;25061;51.954;6.996;2022-12-20T04:53:54;9.80;99.90
39345;DHT22;25061;51.954;6.996;2022-12-20T04:56:26;9.90;99.90
39345;DHT22;25061;51.954;6.996;2022-12-20T04:58:54;9.90;99.90
39345;DHT22;25061;51.954;6.996;2022-12-20T05:01:20;9.90;99.90
39345;DHT22;25061;51.954;6.996;2022-12-20T05:03:51;9.90;99.90
39345;DHT22;25061;51.954;6.996;2022-12-20T05:06:17;9.90;99.90
39345;DHT22;25061;51.954;6.996;2022-12-20T05:08:43;9.90;99.90
39345;DHT22;25061;51.954;6.996;2022-12-20T05:11:09;9.80;99.90
39345;DHT22;25061;51.954;6.996;2022-12-20T05:13:35;10.00;99.90
39345;DHT22;25061;51.954;6.996;2022-12-20T05:16:01;10.00;99.90
39345;DHT22;25061;51.954;6.996;2022-12-20T05:18:27;10.00;99.90
39345;DHT22;25061;51.954;6.996;2022-12-20T05:21:00;9.90;99.90
39345;DHT22;25061;51.954;6.996;2022-12-20T05:23:44;9.90;99.90
39345;DHT22;25061;51.954;6.996;2022-12-20T05:26:31;10.10;99.90
39345;DHT22;25061;51.954;6.996;2022-12-20T05:28:57;10.10;99.90
39345;DHT22;25061;51.954;6.996;2022-12-20T05:31:23;10.20;99.90
39345;DHT22;25061;51.954;6.996;2022-12-20T05:33:48;10.00;99.90
39345;DHT22;25061;51.954;6.996;2022-12-20T05:36:14;10.00;99.90
39345;DHT22;25061;51.954;6.996;2022-12-20T05:38:39;9.90;99.90
39345;DHT22;25061;51.954;6.996;2022-12-20T05:41:05;9.90;99.90
39345;DHT22;25061;51.954;6.996;2022-12-20T05:43:31;10.00;99.90
39345;DHT22;25061;51.954;6.996;2022-12-20T05:45:57;10.00;99.90
39345;DHT22;25061;51.954;6.996;2022-12-20T05:48:22;10.00;99.90
39345;DHT22;25061;51.954;6.996;2022-12-20T05:50:48;10.10;99.90
39345;DHT22;25061;51.954;6.996;2022-12-20T05:53:14;10.00;99.90
39345;DHT22;25061;51.954;6.996;2022-12-20T05:55:48;10.00;99.90
39345;DHT22;25061;51.954;6.996;2022-12-20T05:58:14;10.00;99.90
39345;DHT22;25061;51.954;6.996;2022-12-20T06:00:40;10.00;99.90
39345;DHT22;25061;51.954;6.996;2022-12-20T06:03:06;10.10;99.90
39345;DHT22;25061;51.954;6.996;2022-12-20T06:05:34;10.10;99.90
39345;DHT22;25061;51.954;6.996;2022-12-20T06:07:59;10.10;99.90
39345;DHT22;25061;51.954;6.996;2022-12-20T06:10:25;10.10;99.90
39345;DHT22;25061;51.954;6.996;2022-12-20T06:12:50;10.10;99.90
39345;DHT22;25061;51.954;6.996;2022-12-20T06:15:16;10.00;99.90
39345;DHT22;25061;51.954;6.996;2022-12-20T06:17:41;10.00;99.90
39345;DHT22;25061;51.954;6.996;2022-12-20T06:20:07;10.00;99.90
39345;DHT22;25061;51.954;6.996;2022-12-20T06:22:33;10.00;99.90
39345;DHT22;25061;51.954;6.996;2022-12-20T06:24:59;10.00;99.90
39345;DHT22;25061;51.954;6.996;2022-12-20T06:27:24;10.00;99.90
39345;DHT22;25061;51.954;6.996;2022-12-20T06:29:50;9.90;99.90
39345;DHT22;25061;51.954;6.996;2022-12-20T06:32:19;10.00;99.90
39345;DHT22;25061;51.954;6.996;2022-12-20T06:34:44;9.90;99.90
39345;DHT22;25061;51.954;6.996;2022-12-20T06:37:10;10.00;99.90
39345;DHT22;25061;51.954;6.996;2022-12-20T06:39:36;10.00;99.90
39345;DHT22;25061;51.954;6.996;2022-12-20T06:42:01;9.90;99.90
39345;DHT22;25061;51.954;6.996;2022-12-20T06:44:27;9.90;99.90
39345;DHT22;25061;51.954;6.996;2022-12-20T06:46:53;10.00;99.90
39345;DHT22;25061;51.954;6.996;2022-12-20T06:49:19;10.00;99.90
39345;DHT22;25061;51.954;6.996;2022-12-20T06:51:44;10.00;99.90
39345;DHT22;25061;51.954;6.996;2022-12-20T06:54:10;10.10;99.90
39345;DHT22;25061;51.954;6.996;2022-12-20T06:56:37;10.10;99.90
39345;DHT22;25061;51.954;6.996;2022-12-20T06:59:06;10.10;99.90
39345;DHT22;25061;51.954;6.996;2022-12-20T07:01:31;10.10;99.90
39345;DHT22;25061;51.954;6.996;2022-12-20T07:03:57;10.10;99.90
39345;DHT22;25061;51.954;6.996;2022-12-20T07:06:23;10.20;99.90
39345;DHT22;25061;51.954;6.996;2022-12-20T07:08:49;10.10;99.90
39345;DHT22;25061;51.954;6.996;2022-12-20T07:11:14;10.30;99.90
39345;DHT22;25061;51.954;6.996;2022-12-20T07:13:40;10.10;99.90
39345;DHT22;25061;51.954;6.996;2022-12-20T07:16:05;10.20;99.90
39345;DHT22;25061;51.954;6.996;2022-12-20T07:18:31;10.20;99.90
39345;DHT22;25061;51.954;6.996;2022-12-20T07:21:00;10.20;99.90
39345;DHT22;25061;51.954;6.996;2022-12-20T07:23:27;10.10;99.90
39345;DHT22;25061;51.954;6.996;2022-12-20T07:25:57;10.30;99.90
39345;DHT22;25061;51.954;6.996;2022-12-20T07:28:23;10.20;99.90
39345;DHT22;25061;51.954;6.996;2022-12-20T07:30:50;10.30;99.90
39345;DHT22;25061;51.954;6.996;2022-12-20T07:33:15;10.30;99.90
39345;DHT22;25061;51.954;6.996;2022-12-20T07:35:41;10.30;99.90
39345;DHT22;25061;51.954;6.996;2022-12-20T07:38:08;10.30;99.90
39345;DHT22;25061;51.954;6.996;2022-12-20T07:40:33;10.40;99.90
39345;DHT22;25061;51.954;6.996;2022-12-20T07:42:59;10.30;99.90
39345;DHT22;25061;51.954;6.996;2022-12-20T07:45:26;10.50;99.90
39345;DHT22;25061;51.954;6.996;2022-12-20T07:47:52;10.50;99.90
39345;DHT22;25061;51.954;6.996;2022-12-20T07:50:17;10.40;99.90
39345;DHT22;25061;51.954;6.996;2022-12-20T07:52:44;10.40;99.90
39345;DHT22;25061;51.954;6.996;2022-12-20T07:55:11;10.40;99.90
39345;DHT22;25061;51.954;6.996;2022-12-20T07:57:45;10.50;99.90
39345;DHT22;25061;51.954;6.996;2022-12-20T08:00:12;10.50;99.90
39345;DHT22;25061;51.954;6.996;2022-12-20T08:02:48;10.60;99.90
39345;DHT22;25061;51.954;6.996;2022-12-20T08:05:15;10.60;99.90
39345;DHT22;25061;51.954;6.996;2022-12-20T08:07:43;10.70;99.90
39345;DHT22;25061;51.954;6.996;2022-12-20T08:10:10;10.70;99.90
39345;DHT22;25061;51.954;6.996;2022-12-20T08:12:37;10.70;99.90
39345;DHT22;25061;51.954;6.996;2022-12-20T08:15:04;10.70;99.90
39345;DHT22;25061;51.954;6.996;2022-12-20T08:17:29;10.70;99.90
39345;DHT22;25061;51.954;6.996;2022-12-20T08:19:55;10.80;99.90
39345;DHT22;25061;51.954;6.996;2022-12-20T08:22:22;10.70;99.90
39345;DHT22;25061;51.954;6.996;2022-12-20T08:24:47;10.70;99.90
39345;DHT22;25061;51.954;6.996;2022-12-20T08:27:13;10.70;99.90
39345;DHT22;25061;51.954;6.996;2022-12-20T08:29:39;11.00;99.90
39345;DHT22;25061;51.954;6.996;2022-12-20T08:32:05;11.00;99.90
39345;DHT22;25061;51.954;6.996;2022-12-20T08:34:31;11.00;99.90
39345;DHT22;25061;51.954;6.996;2022-12-20T08:36:56;10.90;99.90
39345;DHT22;25061;51.954;6.996;2022-12-20T08:39:22;10.90;99.90
39345;DHT22;25061;51.954;6.996;2022-12-20T08:41:47;11.00;99.90
39345;DHT22;25061;51.954;6.996;2022-12-20T08:44:13;11.10;99.90
39345;DHT22;25061;51.954;6.996;2022-12-20T08:46:38;10.90;99.90
39345;DHT22;25061;51.954;6.996;2022-12-20T08:49:04;11.00;99.90
39345;DHT22;25061;51.954;6.996;2022-12-20T08:51:30;11.00;99.90
39345;DHT22;25061;51.954;6.996;2022-12-20T08:53:56;11.00;99.90
39345;DHT22;25061;51.954;6.996;2022-12-20T08:56:21;11.00;99.90
39345;DHT22;25061;51.954;6.996;2022-12-20T08:58:47;11.00;99.90
39345;DHT22;25061;51.954;6.996;2022-12-20T09:01:15;11.00;99.90
39345;DHT22;25061;51.954;6.996;2022-12-20T09:03:41;11.00;99.90
39345;DHT22;25061;51.954;6.996;2022-12-20T09:06:09;10.90;99.90
39345;DHT22;25061;51.954;6.996;2022-12-20T09:08:36;11.00;99.90
39345;DHT22;25061;51.954;6.996;2022-12-20T09:11:10;11.00;99.90
39345;DHT22;25061;51.954;6.996;2022-12-20T09:13:37;11.00;99.90
39345;DHT22;25061;51.954;6.996;2022-12-20T09:16:04;11.00;99.90
39345;DHT22;25061;51.954;6.996;2022-12-20T09:18:31;11.00;99.90
39345;DHT22;25061;51.954;6.996;2022-12-20T09:21:04;11.10;99.90
39345;DHT22;25061;51.954;6.996;2022-12-20T09:23:31;11.20;99.90
39345;DHT22;25061;51.954;6.996;2022-12-20T09:26:02;11.30;99.90
39345;DHT22;25061;51.954;6.996;2022-12-20T09:28:28;11.20;99.90
39345;DHT22;25061;51.954;6.996;2022-12-20T09:31:01;11.20;99.90
39345;DHT22;25061;51.954;6.996;2022-12-20T09:33:27;11.30;99.90
39345;DHT22;25061;51.954;6.996;2022-12-20T09:35:53;11.30;99.90
39345;DHT22;25061;51.954;6.996;2022-12-20T09:38:19;11.20;99.90
39345;DHT22;25061;51.954;6.996;2022-12-20T09:40:46;11.20;99.90
39345;DHT22;25061;51.954;6.996;2022-12-20T09:43:14;11.20;99.90
39345;DHT22;25061;51.954;6.996;2022-12-20T09:45:41;11.30;99.90
39345;DHT22;25061;51.954;6.996;2022-12-20T09:48:22;11.40;99.90
39345;DHT22;25061;51.954;6.996;2022-12-20T09:56:50;11.40;99.90
39345;DHT22;25061;51.954;6.996;2022-12-20T09:59:19;11.50;99.90
39345;DHT22;25061;51.954;6.996;2022-12-20T10:01:47;11.50;99.90
39345;DHT22;25061;51.954;6.996;2022-12-20T10:04:21;11.50;99.90
39345;DHT22;25061;51.954;6.996;2022-12-20T10:07:14;11.50;99.90
39345;DHT22;25061;51.954;6.996;2022-12-20T10:09:53;11.50;99.90
39345;DHT22;25061;51.954;6.996;2022-12-20T10:12:26;11.60;99.90
39345;DHT22;25061;51.954;6.996;2022-12-20T10:15:00;11.50;99.90
39345;DHT22;25061;51.954;6.996;2022-12-20T10:23:10;11.50;99.90
39345;DHT22;25061;51.954;6.996;2022-12-20T10:25:40;11.50;99.90
39345;DHT22;25061;51.954;6.996;2022-12-20T10:28:15;11.50;99.90
39345;DHT22;25061;51.954;6.996;2022-12-20T10:30:42;11.50;99.90
39345;DHT22;25061;51.954;6.996;2022-12-20T10:33:20;11.40;99.90
39345;DHT22;25061;51.954;6.996;2022-12-20T10:35:47;11.40;99.90
39345;DHT22;25061;51.954;6.996;2022-12-20T10:38:14;11.50;99.90
39345;DHT22;25061;51.954;6.996;2022-12-20T10:41:00;11.50;99.90
39345;DHT22;25061;51.954;6.996;2022-12-20T10:43:27;11.50;99.90
39345;DHT22;25061;51.954;6.996;2022-12-20T10:46:05;11.50;99.90
39345;DHT22;25061;51.954;6.996;2022-12-20T10:48:36;11.40;99.90
39345;DHT22;25061;51.954;6.996;2022-12-20T10:53:33;11.40;99.90
39345;DHT22;25061;51.954;6.996;2022-12-20T10:56:22;11.40;99.90
39345;DHT22;25061;51.954;6.996;2022-12-20T11:01:44;11.40;99.90
39345;DHT22;25061;51.954;6.996;2022-12-20T11:04:30;11.30;99.90
39345;DHT22;25061;51.954;6.996;2022-12-20T11:06:57;11.30;99.90
39345;DHT22;25061;51.954;6.996;2022-12-20T11:09:32;11.40;99.90
39345;DHT22;25061;51.954;6.996;2022-12-20T11:12:12;11.30;99.90
39345;DHT22;25061;51.954;6.996;2022-12-20T11:14:38;11.40;99.90
39345;DHT22;25061;51.954;6.996;2022-12-20T11:17:31;11.30;99.90
39345;DHT22;25061;51.954;6.996;2022-12-20T11:29:02;11.20;99.90
39345;DHT22;25061;51.954;6.996;2022-12-20T11:31:45;11.10;99.90
39345;DHT22;25061;51.954;6.996;2022-12-20T11:37:21;11.20;99.90
39345;DHT22;25061;51.954;6.996;2022-12-20T11:40:28;11.20;99.90
39345;DHT22;25061;51.954;6.996;2022-12-20T11:48:19;11.10;99.90
39345;DHT22;25061;51.954;6.996;2022-12-20T11:53:42;11.10;99.90
39345;DHT22;25061;51.954;6.996;2022-12-20T11:56:39;11.10;99.90
39345;DHT22;25061;51.954;6.996;2022-12-20T11:59:29;11.10;99.90
39345;DHT22;25061;51.954;6.996;2022-12-20T12:02:16;11.10;99.90
39345;DHT22;25061;51.954;6.996;2022-12-20T12:05:19;11.10;99.90
39345;DHT22;25061;51.954;6.996;2022-12-20T12:07:49;11.10;99.90
39345;DHT22;25061;51.954;6.996;2022-12-20T12:10:20;11.00;99.90
39345;DHT22;25061;51.954;6.996;2022-12-20T12:13:14;10.90;99.90
39345;DHT22;25061;51.954;6.996;2022-12-20T12:16:11;10.70;99.90
39345;DHT22;25061;51.954;6.996;2022-12-20T12:18:40;10.60;99.90
39345;DHT22;25061;51.954;6.996;2022-12-20T12:21:22;10.50;99.90
39345;DHT22;25061;51.954;6.996;2022-12-20T12:26:22;10.40;99.90
39345;DHT22;25061;51.954;6.996;2022-12-20T12:29:00;10.40;99.90
39345;DHT22;25061;51.954;6.996;2022-12-20T12:31:44;10.30;99.90
39345;DHT22;25061;51.954;6.996;2022-12-20T12:34:40;10.30;99.90
39345;DHT22;25061;51.954;6.996;2022-12-20T12:40:27;10.40;99.90
39345;DHT22;25061;51.954;6.996;2022-12-20T12:43:15;10.30;99.90
39345;DHT22;25061;51.954;6.996;2022-12-20T12:46:00;10.30;99.90
39345;DHT22;25061;51.954;6.996;2022-12-20T12:51:22;10.30;99.90
39345;DHT22;25061;51.954;6.996;2022-12-20T12:53:52;10.30;99.90
39345;DHT22;25061;51.954;6.996;2022-12-20T13:20:28;10.40;99.90
39345;DHT22;25061;51.954;6.996;2022-12-20T13:25:38;10.30;99.90
39345;DHT22;25061;51.954;6.996;2022-12-20T13:33:45;10.30;99.90
39345;DHT22;25061;51.954;6.996;2022-12-20T13:49:31;10.30;99.90
39345;DHT22;25061;51.954;6.996;2022-12-20T13:54:48;10.20;99.90
39345;DHT22;25061;51.954;6.996;2022-12-20T13:57:18;10.20;99.90
39345;DHT22;25061;51.954;6.996;2022-12-20T13:59:47;10.20;99.90
39345;DHT22;25061;51.954;6.996;2022-12-20T14:02:35;10.30;99.90
39345;DHT22;25061;51.954;6.996;2022-12-20T14:07:40;10.20;99.90
39345;DHT22;25061;51.954;6.996;2022-12-20T14:10:22;10.20;99.90
39345;DHT22;25061;51.954;6.996;2022-12-20T14:12:51;10.20;99.90
39345;DHT22;25061;51.954;6.996;2022-12-20T14:15:22;10.20;99.90
39345;DHT22;25061;51.954;6.996;2022-12-20T14:17:48;10.20;99.90
39345;DHT22;25061;51.954;6.996;2022-12-20T14:20:40;10.20;99.90
39345;DHT22;25061;51.954;6.996;2022-12-20T14:23:11;10.30;99.90
39345;DHT22;25061;51.954;6.996;2022-12-20T14:25:50;10.20;99.90
39345;DHT22;25061;51.954;6.996;2022-12-20T14:28:38;10.30;99.90
39345;DHT22;25061;51.954;6.996;2022-12-20T14:31:06;10.30;99.90
39345;DHT22;25061;51.954;6.996;2022-12-20T14:33:46;10.20;99.90
39345;DHT22;25061;51.954;6.996;2022-12-20T14:38:50;10.40;99.90
39345;DHT22;25061;51.954;6.996;2022-12-20T14:41:39;10.30;99.90
39345;DHT22;25061;51.954;6.996;2022-12-20T14:44:21;10.40;99.90
39345;DHT22;25061;51.954;6.996;2022-12-20T14:46:55;10.20;99.90
39345;DHT22;25061;51.954;6.996;2022-12-20T14:49:32;10.40;99.90
39345;DHT22;25061;51.954;6.996;2022-12-20T14:55:44;10.30;99.90
39345;DHT22;25061;51.954;6.996;2022-12-20T14:57:55;10.20;99.90
39345;DHT22;25061;51.954;6.996;2022-12-20T15:00:31;10.20;99.90
39345;DHT22;25061;51.954;6.996;2022-12-20T15:03:16;10.30;99.90
39345;DHT22;25061;51.954;6.996;2022-12-20T15:05:58;10.40;99.90
39345;DHT22;25061;51.954;6.996;2022-12-20T15:08:24;10.40;99.90
39345;DHT22;25061;51.954;6.996;2022-12-20T15:10:54;10.30;99.90
39345;DHT22;25061;51.954;6.996;2022-12-20T15:13:26;10.30;99.90
39345;DHT22;25061;51.954;6.996;2022-12-20T15:15:52;10.30;99.90
39345;DHT22;25061;51.954;6.996;2022-12-20T15:18:19;10.30;99.90
39345;DHT22;25061;51.954;6.996;2022-12-20T15:20:57;10.00;99.90
39345;DHT22;25061;51.954;6.996;2022-12-20T15:23:24;10.10;99.90
39345;DHT22;25061;51.954;6.996;2022-12-20T15:25:50;10.20;99.90
39345;DHT22;25061;51.954;6.996;2022-12-20T15:28:21;10.30;99.90
39345;DHT22;25061;51.954;6.996;2022-12-20T15:30:48;10.10;99.90
39345;DHT22;25061;51.954;6.996;2022-12-20T15:33:23;10.30;99.90
39345;DHT22;25061;51.954;6.996;2022-12-20T15:35:49;10.20;99.90
39345;DHT22;25061;51.954;6.996;2022-12-20T15:38:19;9.90;99.90
39345;DHT22;25061;51.954;6.996;2022-12-20T15:40:47;10.10;99.90
39345;DHT22;25061;51.954;6.996;2022-12-20T15:43:15;10.00;99.90
39345;DHT22;25061;51.954;6.996;2022-12-20T15:45:42;10.00;99.90
39345;DHT22;25061;51.954;6.996;2022-12-20T15:48:13;10.10;99.90
39345;DHT22;25061;51.954;6.996;2022-12-20T15:50:41;9.90;99.90
39345;DHT22;25061;51.954;6.996;2022-12-20T15:53:12;10.10;99.90
39345;DHT22;25061;51.954;6.996;2022-12-20T15:55:38;10.20;99.90
39345;DHT22;25061;51.954;6.996;2022-12-20T15:58:04;10.00;99.90
39345;DHT22;25061;51.954;6.996;2022-12-20T16:00:29;9.90;99.90
39345;DHT22;25061;51.954;6.996;2022-12-20T16:02:55;9.80;99.90
39345;DHT22;25061;51.954;6.996;2022-12-20T16:05:23;9.80;99.90
39345;DHT22;25061;51.954;6.996;2022-12-20T16:07:49;10.10;99.90
39345;DHT22;25061;51.954;6.996;2022-12-20T16:10:14;10.10;99.90
39345;DHT22;25061;51.954;6.996;2022-12-20T16:12:40;10.10;99.90
39345;DHT22;25061;51.954;6.996;2022-12-20T16:15:18;9.90;99.90
39345;DHT22;25061;51.954;6.996;2022-12-20T16:17:44;9.80;99.90
39345;DHT22;25061;51.954;6.996;2022-12-20T16:20:10;9.70;99.90
39345;DHT22;25061;51.954;6.996;2022-12-20T16:22:36;9.90;99.90
39345;DHT22;25061;51.954;6.996;2022-12-20T16:25:02;10.10;99.90
39345;DHT22;25061;51.954;6.996;2022-12-20T16:27:27;9.90;99.90
39345;DHT22;25061;51.954;6.996;2022-12-20T16:29:53;10.00;99.90
39345;DHT22;25061;51.954;6.996;2022-12-20T16:32:19;9.70;99.90
39345;DHT22;25061;51.954;6.996;2022-12-20T16:34:49;9.80;99.90
39345;DHT22;25061;51.954;6.996;2022-12-20T16:37:16;9.70;99.90
39345;DHT22;25061;51.954;6.996;2022-12-20T16:39:42;10.10;99.90
39345;DHT22;25061;51.954;6.996;2022-12-20T16:42:16;9.70;99.90
39345;DHT22;25061;51.954;6.996;2022-12-20T16:44:42;10.00;99.90
39345;DHT22;25061;51.954;6.996;2022-12-20T16:47:09;10.00;99.90
39345;DHT22;25061;51.954;6.996;2022-12-20T16:49:35;10.00;99.90
39345;DHT22;25061;51.954;6.996;2022-12-20T16:52:03;9.90;99.90
39345;DHT22;25061;51.954;6.996;2022-12-20T16:54:29;9.80;99.90
39345;DHT22;25061;51.954;6.996;2022-12-20T16:56:54;9.70;99.90
39345;DHT22;25061;51.954;6.996;2022-12-20T16:59:24;9.90;99.90
39345;DHT22;25061;51.954;6.996;2022-12-20T17:01:54;9.90;99.90
39345;DHT22;25061;51.954;6.996;2022-12-20T17:04:21;10.00;99.90
39345;DHT22;25061;51.954;6.996;2022-12-20T17:06:47;10.10;99.90
39345;DHT22;25061;51.954;6.996;2022-12-20T17:09:13;9.90;99.90
39345;DHT22;25061;51.954;6.996;2022-12-20T17:11:41;10.00;99.90
39345;DHT22;25061;51.954;6.996;2022-12-20T17:14:09;10.00;99.90
39345;DHT22;25061;51.954;6.996;2022-12-20T17:16:35;9.90;99.90
39345;DHT22;25061;51.954;6.996;2022-12-20T17:19:02;10.00;99.90
39345;DHT22;25061;51.954;6.996;2022-12-20T17:21:47;9.60;99.90
39345;DHT22;25061;51.954;6.996;2022-12-20T17:24:21;9.70;99.90
39345;DHT22;25061;51.954;6.996;2022-12-20T17:26:47;9.90;99.90
39345;DHT22;25061;51.954;6.996;2022-12-20T17:29:12;9.90;99.90
39345;DHT22;25061;51.954;6.996;2022-12-20T17:31:40;9.70;99.90
39345;DHT22;25061;51.954;6.996;2022-12-20T17:34:20;10.00;99.90
39345;DHT22;25061;51.954;6.996;2022-12-20T17:36:48;9.70;99.90
39345;DHT22;25061;51.954;6.996;2022-12-20T17:39:14;10.00;99.90
39345;DHT22;25061;51.954;6.996;2022-12-20T17:41:41;9.80;99.90